Etusivu
METAR-TAF:

METAR-TAF

Lentoasemat :

Brooks Field

Marshall, Michigan, Yhdysvallat

Leveyspiiri: 42-15-04N, Pituuspiiri: 084-57-20W, korkeus merenpinnasta: 287 m

Tämänhetkinen sää

Tämä raportti tehtiin 19 minuuttia sitten, kello 04.55 UTC
Tuuli 6 kn lännestä
Lämpötila -6°C
Kosteus 62%
Ilmanpaine 1016 hPa
Näkyvyys: 16.1 km
Hajanaisia pilviä 4500 ft:n korkeudessa
Hajonneita pilviä 6000 ft:n korkeudessa
Hajonneita pilviä 7500 ft:n korkeudessa

METAR: KRMY 290455Z AUTO 28006KT 10SM SCT045 BKN060 BKN075 M06/M12 A2999 RMK AO2 T10601122

Aika: 00:14 (05:14 UTC)


TAF: puuttuu

Säähavainnot ja -ennusteet yli 4000 lentoasemalta (METAR- ja TAF-raportit).

Käytössä olevat sääasemat on merkitty karttaan keltaisilla ja punaisilla pisteillä.

Aseta hiiri pisteen päälle nähdäksesi sääaseman nimen.

Klikkaa sitten nähdäksesi säähavainnot ja -ennusteet.

Kartan vaihtaminen: klikkaa mustalla rastilla varustettuja vihreitä pisteitä, niin voit zoomata sisään; viivalla varustettua vihreää pistettä, niin voit zoomata ulos tai vihreitä nuolia, niin pääset viereisille kartoille.


METAR-TAF: